« Back
NWS Peachtree City, Ga » Text Product » CSG Terminal Aerodrome Forecast


Printer-friendly Version
Current Version              Previous Versions:   1  2  3  4  5  6  7  8  9  

Terminal Aerodrome Forecast

772
FTUS42 KFFC 041731
TAFCSG
TAF
KCSG 041731Z 0418/0518 25005KT P6SM VCTS SCT040CB BKN100
      TEMPO 0418/0422 3SM TSRA BKN025CB
     FM050000 17005KT 6SM SHRA BKN045
     FM050300 30008KT P6SM BKN040
     FM050900 28005KT 6SM BR BKN035
     FM051500 21004KT P6SM BKN045=

USA.gov is the U.S. government's official web portal to all federal, state and local government web resources and services.